createdAt,value
2019-05-29T00:00:07.812Z,2.03
2019-05-29T00:02:35.317Z,3.73
2019-05-29T00:05:03.260Z,1.30
2019-05-29T00:07:31.602Z,2.10
2019-05-29T00:09:59.016Z,1.50
2019-05-29T00:12:26.945Z,5.73
2019-05-29T00:14:54.292Z,3.87
2019-05-29T00:17:22.060Z,1.60
2019-05-29T00:19:52.498Z,2.27
2019-05-29T00:22:20.164Z,2.63
2019-05-29T00:24:47.640Z,2.57
2019-05-29T00:27:15.567Z,2.43
2019-05-29T00:29:43.140Z,3.07
2019-05-29T00:32:13.501Z,1.90
2019-05-29T00:34:41.032Z,3.13
2019-05-29T00:37:08.618Z,4.63
2019-05-29T00:39:36.048Z,2.13
2019-05-29T00:42:03.914Z,2.60
2019-05-29T00:44:34.476Z,2.03
2019-05-29T00:47:00.697Z,5.87
2019-05-29T00:49:28.127Z,2.73
2019-05-29T00:51:57.129Z,2.50
2019-05-29T00:54:24.903Z,2.30
2019-05-29T00:56:52.532Z,2.30
2019-05-29T00:59:20.108Z,2.43
2019-05-29T01:01:47.973Z,3.80
2019-05-29T01:04:15.744Z,2.70
2019-05-29T01:06:43.161Z,3.27
2019-05-29T01:09:10.612Z,3.10
2019-05-29T01:11:38.521Z,3.23
2019-05-29T01:14:05.893Z,3.63
2019-05-29T01:16:33.549Z,3.67
2019-05-29T01:19:20.369Z,3.50
2019-05-29T01:21:47.937Z,4.27
2019-05-29T01:24:16.281Z,6.33
2019-05-29T01:26:43.762Z,4.63
2019-05-29T01:29:12.947Z,3.43
2019-05-29T01:31:40.606Z,5.57
2019-05-29T01:34:08.167Z,4.47
2019-05-29T01:36:36.153Z,5.03
2019-05-29T01:39:04.935Z,5.00
2019-05-29T01:41:32.701Z,5.97
2019-05-29T01:44:00.058Z,5.67
2019-05-29T01:46:27.972Z,5.10
2019-05-29T01:48:55.381Z,6.60
2019-05-29T01:51:23.760Z,5.30
2019-05-29T01:53:52.496Z,4.27
2019-05-29T01:56:20.114Z,6.80
2019-05-29T01:58:47.484Z,5.07
2019-05-29T02:01:18.000Z,4.90
2019-05-29T02:03:45.677Z,5.03
2019-05-29T02:06:14.063Z,5.27
2019-05-29T02:08:41.518Z,5.23
2019-05-29T02:11:08.981Z,4.60
2019-05-29T02:13:36.402Z,6.63
2019-05-29T02:16:04.509Z,4.80
2019-05-29T02:18:31.965Z,6.13
2019-05-29T02:20:59.463Z,5.10
2019-05-29T02:23:28.201Z,5.60
2019-05-29T02:25:56.228Z,6.00
2019-05-29T02:28:24.577Z,5.37
2019-05-29T02:30:52.226Z,5.17
2019-05-29T02:33:19.754Z,6.37
2019-05-29T02:35:47.754Z,5.47
2019-05-29T02:38:18.427Z,4.27
2019-05-29T02:40:46.150Z,6.53
2019-05-29T02:43:13.883Z,6.17
2019-05-29T02:45:53.432Z,4.90
2019-05-29T02:48:11.817Z,7.00
2019-05-29T02:50:41.523Z,5.80
2019-05-29T02:53:08.993Z,5.90
2019-05-29T02:55:36.558Z,6.73
2019-05-29T02:58:04.003Z,5.33
2019-05-29T03:00:52.524Z,9.77
2019-05-29T03:03:21.570Z,4.93
2019-05-29T03:05:49.720Z,5.43
2019-05-29T03:08:17.792Z,8.47
2019-05-29T03:10:45.173Z,4.70
2019-05-29T03:13:12.601Z,6.13
2019-05-29T03:15:40.264Z,4.67
2019-05-29T03:18:08.176Z,5.80
2019-05-29T03:20:35.504Z,8.87
2019-05-29T03:23:02.842Z,5.70
2019-05-29T03:25:30.699Z,10.23
2019-05-29T03:27:58.690Z,5.73
2019-05-29T03:30:27.943Z,8.10
2019-05-29T03:32:57.923Z,5.60
2019-05-29T03:35:28.190Z,7.23
2019-05-29T03:37:58.784Z,7.00
2019-05-29T03:40:26.533Z,8.30
2019-05-29T03:42:54.447Z,6.50
2019-05-29T03:45:22.690Z,6.17
2019-05-29T03:47:50.684Z,6.33
2019-05-29T03:50:18.189Z,8.67
2019-05-29T03:52:45.796Z,6.27
2019-05-29T03:55:17.145Z,7.87
2019-05-29T03:57:45.728Z,5.70
2019-05-29T04:00:13.345Z,9.30
2019-05-29T04:02:40.902Z,5.93
2019-05-29T04:05:09.340Z,6.60
2019-05-29T04:07:38.672Z,9.33
2019-05-29T04:10:06.993Z,7.20
2019-05-29T04:12:35.496Z,6.17
2019-05-29T04:15:04.820Z,6.47
2019-05-29T04:17:35.529Z,9.80
2019-05-29T04:20:04.255Z,9.33
2019-05-29T04:22:40.507Z,13.80
2019-05-29T04:25:07.967Z,8.07
2019-05-29T04:27:38.303Z,7.30
2019-05-29T04:30:07.080Z,8.53
2019-05-29T04:32:38.597Z,8.97
2019-05-29T04:35:06.503Z,13.80
2019-05-29T04:37:34.365Z,7.47
2019-05-29T04:40:01.838Z,7.17
2019-05-29T04:42:31.936Z,7.73
2019-05-29T04:44:59.218Z,8.40
2019-05-29T04:47:26.672Z,9.17
2019-05-29T04:49:54.234Z,10.47
2019-05-29T04:52:21.699Z,11.10
2019-05-29T04:54:50.187Z,10.13
2019-05-29T04:57:17.565Z,11.47
2019-05-29T04:59:46.447Z,10.27
2019-05-29T05:02:13.876Z,10.27
2019-05-29T05:04:41.236Z,10.27
2019-05-29T05:07:09.179Z,8.43
2019-05-29T05:09:37.533Z,10.03
2019-05-29T05:12:06.043Z,8.87
2019-05-29T05:14:33.695Z,6.90
2019-05-29T05:17:01.183Z,9.77
2019-05-29T05:19:31.735Z,6.67
2019-05-29T05:21:59.248Z,5.53
2019-05-29T05:24:27.250Z,5.73
2019-05-29T05:26:55.019Z,8.27
2019-05-29T05:29:22.499Z,5.07
2019-05-29T05:31:49.948Z,6.73
2019-05-29T05:34:17.812Z,7.87
2019-05-29T05:36:45.371Z,3.27
2019-05-29T05:39:12.716Z,7.23
2019-05-29T05:41:41.051Z,3.20
2019-05-29T05:44:08.951Z,4.97
2019-05-29T05:46:37.168Z,5.50
2019-05-29T05:49:05.215Z,3.30
2019-05-29T05:51:33.486Z,3.23
2019-05-29T05:54:01.567Z,4.03
2019-05-29T05:56:29.036Z,4.33
2019-05-29T05:58:56.510Z,3.47
2019-05-29T06:01:24.317Z,3.47
2019-05-29T06:03:51.883Z,6.20
2019-05-29T06:06:19.584Z,2.83
2019-05-29T06:08:47.144Z,6.10
2019-05-29T06:11:14.503Z,2.63
2019-05-29T06:13:42.736Z,2.80
2019-05-29T06:16:10.436Z,4.00
2019-05-29T06:18:38.521Z,5.07
2019-05-29T06:21:05.964Z,2.20
2019-05-29T06:23:33.323Z,2.33
2019-05-29T06:26:00.595Z,3.53
2019-05-29T06:28:28.489Z,2.23
2019-05-29T06:30:56.008Z,4.53
2019-05-29T06:33:23.372Z,4.20
2019-05-29T06:35:50.825Z,4.00
2019-05-29T06:38:18.177Z,3.50
2019-05-29T06:40:46.128Z,2.60
2019-05-29T06:43:21.304Z,2.80
2019-05-29T06:45:49.275Z,2.57
2019-05-29T06:48:40.571Z,2.60
2019-05-29T06:50:52.760Z,2.93
2019-05-29T06:53:20.536Z,3.10
2019-05-29T06:55:53.713Z,3.00
2019-05-29T06:58:17.324Z,2.47
2019-05-29T07:00:44.986Z,4.83
2019-05-29T07:03:13.744Z,2.60
2019-05-29T07:05:46.533Z,3.23
2019-05-29T07:08:19.076Z,2.47
2019-05-29T07:10:44.584Z,2.63
2019-05-29T07:13:12.165Z,2.43
2019-05-29T07:15:45.650Z,2.87
2019-05-29T07:18:14.296Z,1.97
2019-05-29T07:20:42.706Z,2.87
2019-05-29T07:23:10.351Z,2.50
2019-05-29T07:25:38.750Z,2.30
2019-05-29T07:28:07.510Z,2.33
2019-05-29T07:30:35.186Z,1.93
2019-05-29T07:33:02.852Z,2.03
2019-05-29T07:35:30.716Z,2.73
2019-05-29T07:37:58.281Z,1.97
2019-05-29T07:40:27.216Z,2.87
2019-05-29T07:42:57.005Z,2.30
2019-05-29T07:45:24.722Z,2.20
2019-05-29T07:47:52.261Z,1.70
2019-05-29T07:50:21.963Z,2.10
2019-05-29T07:52:50.107Z,3.80
2019-05-29T07:55:17.898Z,3.20
2019-05-29T07:57:45.308Z,5.03
2019-05-29T08:00:13.505Z,2.13
2019-05-29T08:02:41.302Z,2.10
2019-05-29T08:05:09.641Z,1.80
2019-05-29T08:07:36.897Z,2.00
2019-05-29T08:10:05.546Z,1.93
2019-05-29T08:12:32.984Z,2.67
2019-05-29T08:15:00.406Z,1.47
2019-05-29T08:17:28.304Z,1.83
2019-05-29T08:20:05.623Z,2.93
2019-05-29T08:22:34.287Z,2.50
2019-05-29T08:24:54.431Z,3.77
2019-05-29T08:27:21.684Z,4.07
2019-05-29T08:29:49.045Z,2.77
2019-05-29T08:32:17.369Z,2.63
2019-05-29T08:34:45.104Z,2.57
2019-05-29T08:37:12.528Z,5.20
2019-05-29T08:39:41.106Z,2.17
2019-05-29T08:42:22.368Z,3.37
2019-05-29T08:44:38.089Z,1.73
2019-05-29T08:47:10.611Z,1.70
2019-05-29T08:49:35.260Z,2.40
2019-05-29T08:52:11.988Z,2.20
2019-05-29T08:54:32.117Z,1.60
2019-05-29T08:56:59.472Z,1.87
2019-05-29T08:59:26.929Z,1.87
2019-05-29T09:01:55.563Z,4.03
2019-05-29T09:04:23.594Z,1.73
2019-05-29T09:06:53.537Z,2.00
2019-05-29T09:09:20.964Z,2.10
2019-05-29T09:11:49.928Z,2.73
2019-05-29T09:14:17.751Z,1.90
2019-05-29T09:16:45.020Z,1.67
2019-05-29T09:19:14.206Z,1.53
2019-05-29T09:21:41.988Z,2.37
2019-05-29T09:24:09.992Z,1.07
2019-05-29T09:26:37.637Z,1.27
2019-05-29T09:29:05.570Z,2.40
2019-05-29T09:31:32.958Z,2.93
2019-05-29T09:34:00.526Z,1.87
2019-05-29T09:36:27.970Z,1.20
2019-05-29T09:38:55.655Z,1.53
2019-05-29T09:41:23.581Z,1.40
2019-05-29T09:43:58.627Z,2.30
2019-05-29T09:46:21.789Z,2.47
2019-05-29T09:48:50.266Z,1.20
2019-05-29T09:51:21.556Z,2.40
2019-05-29T09:53:47.854Z,2.00
2019-05-29T09:56:15.411Z,2.53
2019-05-29T09:58:42.766Z,2.53
2019-05-29T10:01:22.678Z,2.60
2019-05-29T10:03:39.939Z,1.60
2019-05-29T10:06:09.470Z,1.70
2019-05-29T10:08:37.741Z,1.67
2019-05-29T10:11:10.496Z,2.67
2019-05-29T10:13:34.488Z,2.10
2019-05-29T10:16:02.878Z,1.60
2019-05-29T10:18:32.653Z,2.10
2019-05-29T10:21:03.145Z,2.17
2019-05-29T10:23:30.775Z,2.57
2019-05-29T10:26:00.283Z,1.80
2019-05-29T10:28:27.758Z,2.30
2019-05-29T10:30:55.224Z,1.37
2019-05-29T10:33:22.522Z,1.77
2019-05-29T10:35:53.315Z,1.60
2019-05-29T10:38:21.022Z,1.70
2019-05-29T10:41:00.525Z,2.67
2019-05-29T10:43:33.049Z,2.70
2019-05-29T10:45:47.980Z,2.33
2019-05-29T10:48:16.151Z,1.83
2019-05-29T10:50:43.592Z,2.37
2019-05-29T10:53:11.143Z,2.63
2019-05-29T10:55:39.004Z,2.00
2019-05-29T10:58:06.463Z,1.90
2019-05-29T11:00:38.002Z,2.67
2019-05-29T11:03:03.296Z,3.07
2019-05-29T11:05:31.278Z,2.07
2019-05-29T11:07:58.785Z,1.90
2019-05-29T11:10:26.254Z,1.87
2019-05-29T11:12:54.643Z,1.87
2019-05-29T11:15:28.378Z,2.53
2019-05-29T11:17:55.651Z,2.63
2019-05-29T11:20:23.686Z,1.77
2019-05-29T11:22:51.670Z,2.27
2019-05-29T11:25:24.893Z,2.03
2019-05-29T11:27:50.361Z,1.50
2019-05-29T11:30:18.643Z,2.40
2019-05-29T11:32:47.731Z,2.07
2019-05-29T11:35:15.958Z,2.37
2019-05-29T11:37:43.337Z,2.30
2019-05-29T11:40:11.502Z,2.93
2019-05-29T11:42:39.358Z,8.10
2019-05-29T11:45:08.466Z,1.80
2019-05-29T11:47:36.928Z,2.20
2019-05-29T11:50:18.698Z,1.83
2019-05-29T11:52:43.079Z,3.30
2019-05-29T11:55:09.539Z,1.83
2019-05-29T11:57:39.586Z,1.50
2019-05-29T12:00:19.020Z,2.10
2019-05-29T12:02:37.854Z,1.60
2019-05-29T12:05:07.149Z,2.43
2019-05-29T12:07:34.506Z,2.13
2019-05-29T12:10:05.158Z,1.90
2019-05-29T12:12:33.960Z,2.90
2019-05-29T12:15:12.092Z,1.73
2019-05-29T12:17:30.694Z,1.97
2019-05-29T12:19:59.796Z,2.50
2019-05-29T12:22:29.919Z,1.70
2019-05-29T12:24:58.580Z,1.90
2019-05-29T12:27:26.156Z,2.23
2019-05-29T12:29:54.611Z,1.80
2019-05-29T12:32:22.407Z,4.40
2019-05-29T12:34:53.658Z,2.33
2019-05-29T12:37:19.265Z,3.53
2019-05-29T12:39:47.134Z,2.87
2019-05-29T12:42:14.790Z,2.40
2019-05-29T12:44:42.253Z,2.00
2019-05-29T12:47:09.631Z,2.00
2019-05-29T12:49:38.079Z,2.20
2019-05-29T12:52:08.158Z,2.07
2019-05-29T12:54:35.145Z,2.30
2019-05-29T12:57:07.432Z,2.20
2019-05-29T12:59:37.243Z,1.80
2019-05-29T13:02:04.846Z,2.33
2019-05-29T13:05:02.509Z,2.97
2019-05-29T13:07:02.568Z,2.60
2019-05-29T13:09:31.615Z,2.20
2019-05-29T13:12:00.408Z,2.70
2019-05-29T13:14:29.406Z,2.07
2019-05-29T13:16:56.935Z,2.17
2019-05-29T13:19:24.351Z,2.90
2019-05-29T13:21:52.183Z,2.00
2019-05-29T13:24:19.543Z,1.80
2019-05-29T13:26:46.985Z,2.50
2019-05-29T13:29:14.640Z,1.43
2019-05-29T13:31:42.732Z,1.20
2019-05-29T13:34:10.270Z,1.83
2019-05-29T13:36:37.971Z,2.10
2019-05-29T13:39:06.943Z,1.70
2019-05-29T13:41:34.841Z,3.70
2019-05-29T13:44:02.787Z,1.93
2019-05-29T13:46:30.803Z,4.37
2019-05-29T13:48:58.903Z,1.80
2019-05-29T13:51:26.540Z,1.67
2019-05-29T13:54:03.679Z,1.57
2019-05-29T13:56:25.377Z,1.60
2019-05-29T13:58:53.232Z,2.47
2019-05-29T14:01:29.107Z,1.80
2019-05-29T14:03:58.162Z,1.60
2019-05-29T14:06:25.932Z,1.63
2019-05-29T14:08:53.759Z,2.67
2019-05-29T14:11:21.260Z,1.27
2019-05-29T14:13:48.625Z,1.63
2019-05-29T14:16:16.406Z,1.80
2019-05-29T14:18:45.959Z,1.40
2019-05-29T14:21:16.324Z,1.67
2019-05-29T14:23:43.685Z,1.17
2019-05-29T14:26:13.801Z,1.80
2019-05-29T14:28:41.369Z,1.57
2019-05-29T14:31:09.933Z,1.30
2019-05-29T14:33:37.614Z,1.27
2019-05-29T14:36:05.960Z,3.27
2019-05-29T14:38:34.894Z,1.80
2019-05-29T14:41:05.622Z,2.00
2019-05-29T14:43:33.378Z,1.73
2019-05-29T14:46:01.879Z,1.20
2019-05-29T14:48:29.350Z,1.50
2019-05-29T14:50:59.144Z,1.00
2019-05-29T14:53:26.640Z,1.90
2019-05-29T14:55:53.941Z,1.20
2019-05-29T14:58:21.931Z,1.07
2019-05-29T15:00:50.304Z,2.97
2019-05-29T15:03:17.784Z,0.90
2019-05-29T15:05:45.577Z,2.63
2019-05-29T15:08:14.120Z,1.57
2019-05-29T15:10:41.867Z,2.77
2019-05-29T15:13:13.157Z,1.23
2019-05-29T15:15:40.515Z,1.77
2019-05-29T15:18:08.829Z,1.00
2019-05-29T15:20:38.658Z,0.87
2019-05-29T15:23:07.566Z,1.00
2019-05-29T15:25:35.227Z,1.20
2019-05-29T15:28:02.785Z,1.20
2019-05-29T15:30:30.759Z,1.97
2019-05-29T15:32:59.351Z,1.17
2019-05-29T15:35:27.000Z,0.90
2019-05-29T15:37:54.442Z,1.03
2019-05-29T15:40:22.634Z,1.53
2019-05-29T15:42:50.530Z,1.00
2019-05-29T15:45:18.396Z,2.10
2019-05-29T15:47:45.727Z,1.40
2019-05-29T15:50:15.954Z,1.80
2019-05-29T15:52:43.303Z,1.30
2019-05-29T15:55:27.018Z,1.83
2019-05-29T15:57:40.482Z,1.17
2019-05-29T16:00:09.119Z,1.20
2019-05-29T16:02:36.659Z,0.80
2019-05-29T16:05:06.625Z,1.23
2019-05-29T16:07:33.974Z,1.07
2019-05-29T16:10:01.492Z,1.00
2019-05-29T16:12:31.194Z,1.10
2019-05-29T16:14:59.073Z,1.17
2019-05-29T16:17:27.343Z,1.03
2019-05-29T16:19:54.765Z,0.90
2019-05-29T16:22:22.782Z,1.30
2019-05-29T16:24:52.242Z,0.90
2019-05-29T16:27:22.368Z,1.07
2019-05-29T16:29:50.330Z,1.23
2019-05-29T16:32:20.256Z,0.80
2019-05-29T16:34:50.704Z,1.73
2019-05-29T16:37:21.794Z,1.87
2019-05-29T16:39:49.478Z,1.20
2019-05-29T16:42:20.599Z,2.93
2019-05-29T16:44:48.618Z,1.20
2019-05-29T16:47:16.586Z,3.20
2019-05-29T16:49:44.026Z,1.50
2019-05-29T16:52:12.760Z,1.10
2019-05-29T16:54:40.210Z,1.43
2019-05-29T16:57:08.259Z,1.67
2019-05-29T16:59:38.587Z,1.00
2019-05-29T17:02:06.394Z,4.00
2019-05-29T17:04:33.802Z,1.23
2019-05-29T17:07:01.257Z,0.90
2019-05-29T17:09:28.650Z,1.20
2019-05-29T17:11:56.477Z,1.90
2019-05-29T17:14:25.061Z,1.00
2019-05-29T17:16:52.667Z,0.83
2019-05-29T17:19:25.648Z,1.03
2019-05-29T17:21:53.572Z,2.23
2019-05-29T17:24:25.571Z,1.27
2019-05-29T17:26:52.988Z,1.13
2019-05-29T17:29:20.842Z,1.27
2019-05-29T17:31:50.161Z,0.97
2019-05-29T17:34:19.021Z,4.57
2019-05-29T17:36:46.528Z,1.33
2019-05-29T17:39:15.267Z,3.90
2019-05-29T17:41:43.259Z,5.00
2019-05-29T17:44:10.697Z,3.97
2019-05-29T17:46:42.090Z,1.70
2019-05-29T17:49:11.799Z,1.40
2019-05-29T17:51:39.583Z,1.17
2019-05-29T17:54:07.347Z,4.80
2019-05-29T17:56:36.991Z,10.93
2019-05-29T17:59:04.263Z,2.37
2019-05-29T18:01:31.622Z,1.57
2019-05-29T18:03:59.471Z,2.97
2019-05-29T18:06:26.755Z,3.10
2019-05-29T18:08:55.322Z,3.00
2019-05-29T18:11:28.974Z,0.90
2019-05-29T18:14:07.626Z,6.43
2019-05-29T18:16:34.393Z,4.03
2019-05-29T18:19:01.766Z,2.63
2019-05-29T18:21:29.226Z,2.73
2019-05-29T18:23:56.983Z,0.70
2019-05-29T18:26:26.053Z,0.90
2019-05-29T18:28:54.090Z,0.70
2019-05-29T18:31:22.558Z,1.20
2019-05-29T18:33:50.186Z,2.30
2019-05-29T18:36:21.051Z,0.70
2019-05-29T18:38:48.679Z,1.00
2019-05-29T18:41:16.351Z,1.07
2019-05-29T18:43:43.785Z,2.50
2019-05-29T18:46:11.163Z,0.67
2019-05-29T18:48:38.524Z,0.90
2019-05-29T18:51:06.491Z,0.90
2019-05-29T18:53:33.852Z,0.80
2019-05-29T18:56:01.387Z,0.80
2019-05-29T18:58:28.801Z,0.90
2019-05-29T19:00:59.119Z,0.80
2019-05-29T19:03:27.543Z,1.20
2019-05-29T19:05:56.816Z,1.20
2019-05-29T19:08:24.240Z,1.30
2019-05-29T19:10:52.102Z,1.47
2019-05-29T19:13:19.659Z,1.40
2019-05-29T19:15:47.019Z,1.63
2019-05-29T19:18:14.783Z,2.17
2019-05-29T19:20:42.767Z,1.57
2019-05-29T19:23:10.184Z,1.43
2019-05-29T19:25:37.977Z,2.17
2019-05-29T19:28:05.567Z,3.50
2019-05-29T19:30:33.603Z,4.53
2019-05-29T19:33:01.084Z,3.43
2019-05-29T19:35:30.057Z,3.93
2019-05-29T19:37:57.408Z,2.07
2019-05-29T19:40:26.019Z,1.83
2019-05-29T19:42:54.714Z,2.23
2019-05-29T19:45:22.773Z,2.13
2019-05-29T19:47:50.083Z,1.93
2019-05-29T19:50:17.970Z,1.37
2019-05-29T19:52:45.420Z,2.40
2019-05-29T19:55:13.712Z,2.17
2019-05-29T19:57:55.178Z,1.50
2019-05-29T20:00:12.867Z,2.03
2019-05-29T20:02:40.393Z,1.97
2019-05-29T20:05:07.767Z,3.03
2019-05-29T20:07:35.312Z,2.03
2019-05-29T20:10:03.404Z,2.47
2019-05-29T20:12:31.589Z,2.63
2019-05-29T20:14:59.357Z,5.10
2019-05-29T20:17:27.918Z,2.00
2019-05-29T20:19:55.396Z,1.87
2019-05-29T20:22:23.217Z,1.60
2019-05-29T20:24:50.626Z,2.47
2019-05-29T20:27:18.388Z,1.60
2019-05-29T20:29:45.894Z,1.63
2019-05-29T20:32:13.878Z,2.30
2019-05-29T20:34:41.350Z,1.60
2019-05-29T20:37:09.000Z,2.10
2019-05-29T20:39:36.608Z,1.50
2019-05-29T20:42:04.336Z,1.40
2019-05-29T20:44:32.581Z,1.50
2019-05-29T20:47:00.201Z,2.93
2019-05-29T20:49:27.682Z,2.33
2019-05-29T20:51:55.632Z,1.07
2019-05-29T20:54:23.016Z,1.93
2019-05-29T20:56:50.442Z,1.47
2019-05-29T20:59:17.806Z,1.53
2019-05-29T21:01:47.667Z,1.30
2019-05-29T21:04:15.733Z,1.60
2019-05-29T21:06:43.048Z,3.13
2019-05-29T21:09:10.508Z,1.40
2019-05-29T21:11:39.507Z,1.60
2019-05-29T21:14:08.163Z,2.43
2019-05-29T21:16:35.616Z,2.00
2019-05-29T21:19:03.223Z,1.87
2019-05-29T21:21:31.047Z,1.50
2019-05-29T21:23:58.688Z,1.57
2019-05-29T21:26:26.610Z,1.33
2019-05-29T21:28:53.965Z,1.50
2019-05-29T21:31:21.835Z,1.00
2019-05-29T21:33:49.907Z,2.87
2019-05-29T21:36:17.260Z,0.90
2019-05-29T21:38:44.652Z,1.33
2019-05-29T21:41:12.334Z,0.90
2019-05-29T21:43:40.619Z,1.40
2019-05-29T21:46:08.645Z,1.30
2019-05-29T21:48:37.004Z,3.13
2019-05-29T21:51:05.081Z,1.47
2019-05-29T21:53:32.541Z,1.23
2019-05-29T21:56:00.413Z,1.53
2019-05-29T21:58:27.765Z,1.60
2019-05-29T22:00:55.919Z,1.57
2019-05-29T22:03:23.421Z,1.30
2019-05-29T22:05:51.159Z,1.57
2019-05-29T22:08:18.817Z,1.73
2019-05-29T22:10:46.489Z,2.83
2019-05-29T22:13:14.046Z,1.40
2019-05-29T22:15:41.594Z,1.80
2019-05-29T22:18:09.680Z,2.80
2019-05-29T22:20:37.470Z,1.10
2019-05-29T22:23:05.214Z,1.23
2019-05-29T22:25:34.558Z,1.97
2019-05-29T22:28:02.059Z,0.80
2019-05-29T22:30:29.935Z,1.00
2019-05-29T22:32:57.516Z,0.87
2019-05-29T22:35:25.273Z,2.50
2019-05-29T22:37:53.466Z,1.10
2019-05-29T22:40:21.815Z,1.00
2019-05-29T22:42:49.213Z,3.07
2019-05-29T22:45:16.669Z,0.80
2019-05-29T22:47:44.196Z,1.40
2019-05-29T22:50:14.831Z,1.93
2019-05-29T22:52:42.181Z,1.20
2019-05-29T22:55:09.897Z,2.47
2019-05-29T22:57:37.905Z,1.60
2019-05-29T23:00:09.269Z,1.00
2019-05-29T23:02:36.929Z,1.10
2019-05-29T23:05:04.973Z,1.20
2019-05-29T23:07:32.357Z,1.17
2019-05-29T23:10:00.657Z,1.77
2019-05-29T23:12:28.182Z,1.30
2019-05-29T23:14:56.339Z,1.13
2019-05-29T23:17:23.922Z,1.20
2019-05-29T23:19:54.389Z,1.40
2019-05-29T23:22:24.473Z,1.57
2019-05-29T23:24:54.746Z,1.30
2019-05-29T23:27:22.876Z,1.40
2019-05-29T23:29:52.681Z,1.60
2019-05-29T23:32:20.958Z,1.30
2019-05-29T23:34:48.610Z,1.50
2019-05-29T23:37:16.175Z,1.40
2019-05-29T23:39:44.150Z,1.10
2019-05-29T23:42:11.902Z,1.23
2019-05-29T23:44:39.669Z,1.27
2019-05-29T23:47:07.134Z,1.27
2019-05-29T23:49:34.485Z,1.73
2019-05-29T23:52:05.034Z,1.47
2019-05-29T23:54:33.186Z,1.90
2019-05-29T23:57:01.903Z,1.20
2019-05-29T23:59:30.054Z,1.47
